createdAt,value
2017-05-24T00:01:19.464Z,77.30
2017-05-24T00:03:46.441Z,78.50
2017-05-24T00:06:13.349Z,77.70
2017-05-24T00:08:40.265Z,77.60
2017-05-24T00:11:07.204Z,78.10
2017-05-24T00:13:34.140Z,78.40
2017-05-24T00:16:01.069Z,78.70
2017-05-24T00:18:28.072Z,79.20
2017-05-24T00:20:55.033Z,79.70
2017-05-24T00:23:21.989Z,80.00
2017-05-24T00:25:48.916Z,80.00
2017-05-24T00:28:15.822Z,79.80
2017-05-24T00:30:43.143Z,79.80
2017-05-24T00:33:10.057Z,79.90
2017-05-24T00:35:36.989Z,79.70
2017-05-24T00:38:03.931Z,79.70
2017-05-24T00:40:30.840Z,80.40
2017-05-24T00:42:57.793Z,80.60
2017-05-24T00:45:24.727Z,81.00
2017-05-24T00:47:51.681Z,81.30
2017-05-24T00:50:18.751Z,81.30
2017-05-24T00:52:45.666Z,81.50
2017-05-24T00:55:12.588Z,81.70
2017-05-24T00:57:39.545Z,81.60
2017-05-24T01:00:06.460Z,81.80
2017-05-24T01:02:33.400Z,81.50
2017-05-24T01:05:00.348Z,80.60
2017-05-24T01:07:27.272Z,79.90
2017-05-24T01:09:54.189Z,78.80
2017-05-24T01:12:21.149Z,77.90
2017-05-24T01:14:48.085Z,77.70
2017-05-24T01:17:14.260Z,77.70
2017-05-24T01:19:41.206Z,76.80
2017-05-24T01:22:08.125Z,75.90
2017-05-24T01:24:35.048Z,74.90
2017-05-24T01:27:02.010Z,75.80
2017-05-24T01:29:28.936Z,75.30
2017-05-24T01:31:55.884Z,75.60
2017-05-24T01:34:22.825Z,75.10
2017-05-24T01:36:49.757Z,75.30
2017-05-24T01:39:16.700Z,74.90
2017-05-24T01:41:43.640Z,74.30
2017-05-24T01:44:10.616Z,74.70
2017-05-24T01:46:37.579Z,74.50
2017-05-24T01:49:04.529Z,74.20
2017-05-24T01:51:31.499Z,74.00
2017-05-24T01:53:58.413Z,74.00
2017-05-24T01:56:25.329Z,73.80
2017-05-24T01:58:52.277Z,72.90
2017-05-24T02:01:19.220Z,72.70
2017-05-24T02:03:46.148Z,72.40
2017-05-24T02:06:13.072Z,72.50
2017-05-24T02:08:40.035Z,72.40
2017-05-24T02:11:07.052Z,72.40
2017-05-24T02:13:33.965Z,71.90
2017-05-24T02:16:00.942Z,71.30
2017-05-24T02:18:27.851Z,71.60
2017-05-24T02:20:54.791Z,71.40
2017-05-24T02:23:21.804Z,71.20
2017-05-24T02:25:48.729Z,69.60
2017-05-24T02:28:15.643Z,67.70
2017-05-24T02:30:42.625Z,67.40
2017-05-24T02:33:09.541Z,67.80
2017-05-24T02:35:36.495Z,67.50
2017-05-24T02:38:03.452Z,66.40
2017-05-24T02:40:30.396Z,66.10
2017-05-24T02:42:57.313Z,65.70
2017-05-24T02:45:24.243Z,65.00
2017-05-24T02:47:51.174Z,65.00
2017-05-24T02:50:18.123Z,65.20
2017-05-24T02:52:45.100Z,64.20
2017-05-24T02:55:12.019Z,64.80
2017-05-24T02:57:38.929Z,64.00
2017-05-24T03:00:05.875Z,63.80
2017-05-24T03:02:32.876Z,64.00
2017-05-24T03:04:59.790Z,63.10
2017-05-24T03:07:26.737Z,64.20
2017-05-24T03:09:53.681Z,62.30
2017-05-24T03:12:20.616Z,63.40
2017-05-24T03:14:47.567Z,62.40
2017-05-24T03:17:14.476Z,62.80
2017-05-24T03:19:41.401Z,62.60
2017-05-24T03:22:08.372Z,62.90
2017-05-24T03:24:35.289Z,62.80
2017-05-24T03:27:02.204Z,62.90
2017-05-24T03:29:29.139Z,62.70
2017-05-24T03:31:56.080Z,62.60
2017-05-24T03:34:23.023Z,63.10
2017-05-24T03:36:49.991Z,63.30
2017-05-24T03:39:16.898Z,62.90
2017-05-24T03:41:43.833Z,63.00
2017-05-24T03:44:10.760Z,63.10
2017-05-24T03:46:37.694Z,63.10
2017-05-24T03:49:04.647Z,63.30
2017-05-24T03:51:31.561Z,63.10
2017-05-24T03:53:58.505Z,62.90
2017-05-24T03:56:25.453Z,63.60
2017-05-24T03:58:52.364Z,63.50
2017-05-24T04:01:19.276Z,63.20
2017-05-24T04:03:46.199Z,63.20
2017-05-24T04:06:13.153Z,64.20
2017-05-24T04:08:40.070Z,63.40
2017-05-24T04:11:06.983Z,62.90
2017-05-24T04:13:33.940Z,62.70
2017-05-24T04:16:00.844Z,62.80
2017-05-24T04:18:27.784Z,62.80
2017-05-24T04:20:54.728Z,63.20
2017-05-24T04:23:21.644Z,63.10
2017-05-24T04:25:48.559Z,63.50
2017-05-24T04:28:15.591Z,62.60
2017-05-24T04:30:42.520Z,62.10
2017-05-24T04:33:09.473Z,62.00
2017-05-24T04:35:36.403Z,62.10
2017-05-24T04:38:03.376Z,62.60
2017-05-24T04:40:30.313Z,62.70
2017-05-24T04:42:57.236Z,62.90
2017-05-24T04:45:24.180Z,63.10
2017-05-24T04:47:50.380Z,63.10
2017-05-24T04:50:17.372Z,62.90
2017-05-24T04:52:44.300Z,62.80
2017-05-24T04:55:11.226Z,61.90
2017-05-24T04:57:38.164Z,63.00
2017-05-24T05:00:05.122Z,62.60
2017-05-24T05:02:32.141Z,62.20
2017-05-24T05:04:59.061Z,61.90
2017-05-24T05:07:25.987Z,61.70
2017-05-24T05:09:52.975Z,61.50
2017-05-24T05:12:19.924Z,61.60
2017-05-24T05:14:46.837Z,61.70
2017-05-24T05:17:13.804Z,61.80
2017-05-24T05:19:40.720Z,60.90
2017-05-24T05:22:07.737Z,61.10
2017-05-24T05:24:34.737Z,61.20
2017-05-24T05:27:01.657Z,61.10
2017-05-24T05:29:28.604Z,59.90
2017-05-24T05:31:55.624Z,59.70
2017-05-24T05:34:22.540Z,59.70
2017-05-24T05:36:49.535Z,59.40
2017-05-24T05:39:16.510Z,59.00
2017-05-24T05:41:43.436Z,57.80
2017-05-24T05:44:10.373Z,58.00
2017-05-24T05:46:37.325Z,57.80
2017-05-24T05:49:04.261Z,57.00
2017-05-24T05:51:31.205Z,57.10
2017-05-24T05:53:58.181Z,56.30
2017-05-24T05:56:25.119Z,55.90
2017-05-24T05:58:52.061Z,55.60
2017-05-24T06:01:18.990Z,54.10
2017-05-24T06:03:45.939Z,54.10
2017-05-24T06:06:12.852Z,54.10
2017-05-24T06:08:39.816Z,54.40
2017-05-24T06:11:06.794Z,54.70
2017-05-24T06:13:33.749Z,53.60
2017-05-24T06:16:00.669Z,52.90
2017-05-24T06:18:27.721Z,52.70
2017-05-24T06:20:54.635Z,53.30
2017-05-24T06:23:21.544Z,52.30
2017-05-24T06:25:48.500Z,52.30
2017-05-24T06:28:15.417Z,51.70
2017-05-24T06:30:42.336Z,52.70
2017-05-24T06:33:09.265Z,51.50
2017-05-24T06:35:36.183Z,51.70
2017-05-24T06:38:03.219Z,51.50
2017-05-24T06:40:30.258Z,51.10
2017-05-24T06:42:57.198Z,50.40
2017-05-24T06:45:24.110Z,50.30
2017-05-24T06:47:51.065Z,50.60
2017-05-24T06:50:17.983Z,50.10
2017-05-24T06:52:44.905Z,48.50
2017-05-24T06:55:11.928Z,47.90
2017-05-24T06:57:38.840Z,47.50
2017-05-24T07:00:05.759Z,47.50
2017-05-24T07:02:32.730Z,46.20
2017-05-24T07:04:59.732Z,46.20
2017-05-24T07:07:26.667Z,46.20
2017-05-24T07:09:53.621Z,44.20
2017-05-24T07:12:20.560Z,45.40
2017-05-24T07:14:47.572Z,45.50
2017-05-24T07:17:14.496Z,44.10
2017-05-24T07:19:41.403Z,44.20
2017-05-24T07:22:08.347Z,43.70
2017-05-24T07:24:35.277Z,44.10
2017-05-24T07:27:02.205Z,43.90
2017-05-24T07:29:29.153Z,42.70
2017-05-24T07:31:56.071Z,44.50
2017-05-24T07:34:22.996Z,43.10
2017-05-24T07:36:50.032Z,44.00
2017-05-24T07:39:16.979Z,44.20
2017-05-24T07:41:43.918Z,45.20
2017-05-24T07:44:10.868Z,43.40
2017-05-24T07:46:37.775Z,42.60
2017-05-24T07:49:04.686Z,42.10
2017-05-24T07:51:31.709Z,40.20
2017-05-24T07:53:58.639Z,40.30
2017-05-24T07:56:25.567Z,40.90
2017-05-24T07:58:52.532Z,40.10
2017-05-24T08:01:19.448Z,37.10
2017-05-24T08:03:46.382Z,38.80
2017-05-24T08:06:13.334Z,38.60
2017-05-24T08:08:40.273Z,37.50
2017-05-24T08:11:07.256Z,35.00
2017-05-24T08:13:34.172Z,35.00
2017-05-24T08:16:01.084Z,34.60
2017-05-24T08:18:28.046Z,34.10
2017-05-24T08:20:54.970Z,34.10
2017-05-24T08:23:21.901Z,39.10
2017-05-24T08:25:48.853Z,38.90
2017-05-24T08:28:15.764Z,37.80
2017-05-24T08:30:42.704Z,35.20
2017-05-24T08:33:09.701Z,33.10
2017-05-24T08:35:36.626Z,33.10
2017-05-24T08:38:03.576Z,32.90
2017-05-24T08:40:30.546Z,31.10
2017-05-24T08:42:57.496Z,30.40
2017-05-24T08:45:24.428Z,30.90
2017-05-24T08:47:51.385Z,31.90
2017-05-24T08:50:18.314Z,30.80
2017-05-24T08:52:45.251Z,30.80
2017-05-24T08:55:12.196Z,30.60
2017-05-24T08:57:39.116Z,30.00
2017-05-24T09:00:06.074Z,30.00
2017-05-24T09:02:33.030Z,29.00
2017-05-24T09:05:00.210Z,29.30
2017-05-24T09:07:27.168Z,28.60
2017-05-24T09:09:54.085Z,28.20
2017-05-24T09:12:20.998Z,27.60
2017-05-24T09:14:47.979Z,27.90
2017-05-24T09:17:14.925Z,28.60
2017-05-24T09:19:41.849Z,28.20
2017-05-24T09:22:08.817Z,28.70
2017-05-24T09:24:34.993Z,28.70
2017-05-24T09:27:01.945Z,28.50
2017-05-24T09:29:28.970Z,28.40
2017-05-24T09:31:55.963Z,28.40
2017-05-24T09:34:22.891Z,30.00
2017-05-24T09:36:49.852Z,28.80
2017-05-24T09:39:16.789Z,28.80
2017-05-24T09:41:43.779Z,28.00
2017-05-24T09:44:10.749Z,29.00
2017-05-24T09:46:37.668Z,28.70
2017-05-24T09:49:04.680Z,28.60
2017-05-24T09:51:31.668Z,28.60
2017-05-24T09:53:58.589Z,29.70
2017-05-24T09:56:25.515Z,29.70
2017-05-24T09:58:52.493Z,29.20
2017-05-24T10:01:19.441Z,28.80
2017-05-24T10:03:46.373Z,29.60
2017-05-24T10:06:13.342Z,28.20
2017-05-24T10:08:40.288Z,28.70
2017-05-24T10:11:07.241Z,28.00
2017-05-24T10:13:34.166Z,27.90
2017-05-24T10:16:01.092Z,27.60
2017-05-24T10:18:28.036Z,27.10
2017-05-24T10:20:54.949Z,27.90
2017-05-24T10:23:21.945Z,27.40
2017-05-24T10:25:48.891Z,26.80
2017-05-24T10:28:15.834Z,28.70
2017-05-24T10:30:42.813Z,27.80
2017-05-24T10:33:09.736Z,28.20
2017-05-24T10:35:36.660Z,28.20
2017-05-24T10:38:03.655Z,27.20
2017-05-24T10:40:36.745Z,27.50
2017-05-24T10:43:03.721Z,26.70
2017-05-24T10:45:30.657Z,27.00
2017-05-24T10:47:57.589Z,26.60
2017-05-24T10:50:24.592Z,26.60
2017-05-24T10:52:51.539Z,26.10
2017-05-24T10:55:18.509Z,28.20
2017-05-24T10:57:45.459Z,27.40
2017-05-24T11:00:12.385Z,27.40
2017-05-24T11:02:39.362Z,27.40
2017-05-24T11:05:06.289Z,28.00
2017-05-24T11:07:33.233Z,27.90
2017-05-24T11:10:00.194Z,28.00
2017-05-24T11:12:27.158Z,28.70
2017-05-24T11:14:54.125Z,29.30
2017-05-24T11:17:21.088Z,28.70
2017-05-24T11:19:48.028Z,28.70
2017-05-24T11:22:14.971Z,28.40
2017-05-24T11:24:41.963Z,30.80
2017-05-24T11:27:08.904Z,31.00
2017-05-24T11:29:35.847Z,30.30
2017-05-24T11:32:02.799Z,32.90
2017-05-24T11:34:29.766Z,31.60
2017-05-24T11:36:56.680Z,31.10
2017-05-24T11:39:23.625Z,30.80
2017-05-24T11:41:50.601Z,32.10
2017-05-24T11:44:17.532Z,32.70
2017-05-24T11:46:44.468Z,32.90
2017-05-24T11:49:11.440Z,31.60
2017-05-24T11:51:38.366Z,32.70
2017-05-24T11:54:05.314Z,33.40
2017-05-24T11:56:32.270Z,34.40
2017-05-24T11:58:59.194Z,32.00
2017-05-24T12:01:26.138Z,32.40
2017-05-24T12:03:53.083Z,32.10
2017-05-24T12:06:20.053Z,33.30
2017-05-24T12:08:46.965Z,33.80
2017-05-24T12:11:13.904Z,34.10
2017-05-24T12:13:40.932Z,34.00
2017-05-24T12:16:07.865Z,35.50
2017-05-24T12:18:34.865Z,36.50
2017-05-24T12:21:01.820Z,35.50
2017-05-24T12:23:28.761Z,34.20
2017-05-24T12:25:55.693Z,36.30
2017-05-24T12:28:22.669Z,36.20
2017-05-24T12:30:49.585Z,36.30
2017-05-24T12:33:16.495Z,36.20
2017-05-24T12:35:43.457Z,36.30
2017-05-24T12:38:10.389Z,36.30
2017-05-24T12:40:37.332Z,36.60
2017-05-24T12:43:04.298Z,37.00
2017-05-24T12:45:31.260Z,37.10
2017-05-24T12:47:58.198Z,37.40
2017-05-24T12:50:25.164Z,38.50
2017-05-24T12:52:52.105Z,39.50
2017-05-24T12:55:19.039Z,38.20
2017-05-24T12:57:46.108Z,37.00
2017-05-24T13:00:13.073Z,37.90
2017-05-24T13:02:40.040Z,37.80
2017-05-24T13:05:06.991Z,39.00
2017-05-24T13:07:33.965Z,37.80
2017-05-24T13:10:00.880Z,38.90
2017-05-24T13:12:27.829Z,38.60
2017-05-24T13:14:54.796Z,40.60
2017-05-24T13:17:21.732Z,40.50
2017-05-24T13:19:48.670Z,41.00
2017-05-24T13:22:15.625Z,40.80
2017-05-24T13:24:42.597Z,40.30
2017-05-24T13:27:09.553Z,39.70
2017-05-24T13:29:36.496Z,41.60
2017-05-24T13:32:03.440Z,41.30
2017-05-24T13:34:30.408Z,41.30
2017-05-24T13:36:57.351Z,41.00
2017-05-24T13:39:24.266Z,42.00
2017-05-24T13:41:51.211Z,41.40
2017-05-24T13:44:18.129Z,40.90
2017-05-24T13:46:45.103Z,41.60
2017-05-24T13:49:12.029Z,40.50
2017-05-24T13:51:39.008Z,40.50
2017-05-24T13:54:05.963Z,40.80
2017-05-24T13:56:32.888Z,40.80
2017-05-24T13:58:59.822Z,40.80
2017-05-24T14:01:26.776Z,42.00
2017-05-24T14:03:53.699Z,42.50
2017-05-24T14:06:20.648Z,42.70
2017-05-24T14:08:47.597Z,43.30
2017-05-24T14:11:14.659Z,43.20
2017-05-24T14:13:41.575Z,43.20
2017-05-24T14:16:08.511Z,44.10
2017-05-24T14:18:35.496Z,45.00
2017-05-24T14:21:02.439Z,45.50
2017-05-24T14:23:29.364Z,46.00
2017-05-24T14:25:56.303Z,46.10
2017-05-24T14:28:23.276Z,45.10
2017-05-24T14:30:50.340Z,45.10
2017-05-24T14:33:17.317Z,44.80
2017-05-24T14:35:44.511Z,45.50
2017-05-24T14:38:11.560Z,44.50
2017-05-24T14:40:38.628Z,45.00
2017-05-24T14:43:05.665Z,44.60
2017-05-24T14:45:32.636Z,45.00
2017-05-24T14:47:59.561Z,45.40
2017-05-24T14:50:26.492Z,44.80
2017-05-24T14:52:53.741Z,45.50
2017-05-24T14:55:20.681Z,45.40
2017-05-24T14:57:47.612Z,45.50
2017-05-24T15:00:14.624Z,45.40
2017-05-24T15:02:41.556Z,45.50
2017-05-24T15:05:08.471Z,46.60
2017-05-24T15:07:35.407Z,46.30
2017-05-24T15:10:02.701Z,48.00
2017-05-24T15:12:29.624Z,47.30
2017-05-24T15:14:56.534Z,47.20
2017-05-24T15:17:23.495Z,47.70
2017-05-24T15:19:50.412Z,47.00
2017-05-24T15:22:17.384Z,46.70
2017-05-24T15:24:44.337Z,46.50
2017-05-24T15:27:11.289Z,45.80
2017-05-24T15:29:38.212Z,45.90
2017-05-24T15:32:05.176Z,46.40
2017-05-24T15:34:32.092Z,47.20
2017-05-24T15:36:59.033Z,46.70
2017-05-24T15:39:25.997Z,47.40
2017-05-24T15:41:53.836Z,47.90
2017-05-24T15:44:20.777Z,47.90
2017-05-24T15:46:47.744Z,48.50
2017-05-24T15:49:14.717Z,48.50
2017-05-24T15:51:41.660Z,48.40
2017-05-24T15:54:08.630Z,48.80
2017-05-24T15:56:35.565Z,50.10
2017-05-24T15:59:02.493Z,49.30
2017-05-24T16:01:29.461Z,49.30
2017-05-24T16:03:56.429Z,49.20
2017-05-24T16:06:23.388Z,49.80
2017-05-24T16:08:50.394Z,49.50
2017-05-24T16:11:17.355Z,50.00
2017-05-24T16:13:44.291Z,49.60
2017-05-24T16:16:11.226Z,49.40
2017-05-24T16:18:38.188Z,49.80
2017-05-24T16:21:05.108Z,50.30
2017-05-24T16:23:32.034Z,50.30
2017-05-24T16:25:59.001Z,51.20
2017-05-24T16:28:25.931Z,51.20
2017-05-24T16:30:52.871Z,51.40
2017-05-24T16:33:19.816Z,51.40
2017-05-24T16:35:46.728Z,51.70
2017-05-24T16:38:13.656Z,52.00
2017-05-24T16:40:40.604Z,51.70
2017-05-24T16:43:07.977Z,51.50
2017-05-24T16:45:34.906Z,51.80
2017-05-24T16:48:01.839Z,51.80
2017-05-24T16:50:28.816Z,51.60
2017-05-24T16:52:55.741Z,51.80
2017-05-24T16:55:22.666Z,51.40
2017-05-24T16:57:49.616Z,51.90
2017-05-24T17:00:16.586Z,52.20
2017-05-24T17:02:43.573Z,52.20
2017-05-24T17:05:10.521Z,53.10
2017-05-24T17:07:37.469Z,53.10
2017-05-24T17:10:04.405Z,53.00
2017-05-24T17:12:31.393Z,52.90
2017-05-24T17:14:58.308Z,53.20
2017-05-24T17:17:25.261Z,53.10
2017-05-24T17:19:52.196Z,53.20
2017-05-24T17:22:19.171Z,52.80
2017-05-24T17:24:46.114Z,53.40
2017-05-24T17:27:13.037Z,53.10
2017-05-24T17:29:39.998Z,53.80
2017-05-24T17:32:06.926Z,54.40
2017-05-24T17:34:33.881Z,54.30
2017-05-24T17:37:00.844Z,54.30
2017-05-24T17:39:27.785Z,54.80
2017-05-24T17:41:54.781Z,54.50
2017-05-24T17:44:21.753Z,54.40
2017-05-24T17:46:48.683Z,54.30
2017-05-24T17:49:15.659Z,54.20
2017-05-24T17:51:42.695Z,54.20
2017-05-24T17:54:09.713Z,54.60
2017-05-24T17:56:36.698Z,54.50
2017-05-24T17:59:03.655Z,54.10
2017-05-24T18:01:30.588Z,54.10
2017-05-24T18:03:57.585Z,53.90
2017-05-24T18:06:24.528Z,53.80
2017-05-24T18:08:51.464Z,54.40
2017-05-24T18:11:18.472Z,54.20
2017-05-24T18:13:45.405Z,54.40
2017-05-24T18:16:11.609Z,54.40
2017-05-24T18:18:38.619Z,54.70
2017-05-24T18:21:05.589Z,54.70
2017-05-24T18:23:32.583Z,55.00
2017-05-24T18:25:59.574Z,55.20
2017-05-24T18:28:26.503Z,55.20
2017-05-24T18:30:53.525Z,55.40
2017-05-24T18:33:20.452Z,55.60
2017-05-24T18:35:47.392Z,55.60
2017-05-24T18:38:14.417Z,55.60
2017-05-24T18:40:41.421Z,55.60
2017-05-24T18:43:08.386Z,55.50
2017-05-24T18:45:35.348Z,56.00
2017-05-24T18:48:02.274Z,55.60
2017-05-24T18:50:29.213Z,56.10
2017-05-24T18:52:56.211Z,56.40
2017-05-24T18:55:23.140Z,56.70
2017-05-24T18:57:50.077Z,56.90
2017-05-24T19:00:17.041Z,56.90
2017-05-24T19:02:43.960Z,57.20
2017-05-24T19:05:10.877Z,57.20
2017-05-24T19:07:37.873Z,57.00
2017-05-24T19:10:04.801Z,56.80
2017-05-24T19:12:31.738Z,56.90
2017-05-24T19:14:58.733Z,56.90
2017-05-24T19:17:25.657Z,57.00
2017-05-24T19:19:52.648Z,56.90
2017-05-24T19:22:19.582Z,57.30
2017-05-24T19:24:46.512Z,57.40
2017-05-24T19:27:13.470Z,57.40
2017-05-24T19:29:40.408Z,57.60
2017-05-24T19:32:07.364Z,57.70
2017-05-24T19:34:34.290Z,58.00
2017-05-24T19:37:01.288Z,57.60
2017-05-24T19:39:28.219Z,57.40
2017-05-24T19:41:55.161Z,57.60
2017-05-24T19:44:22.115Z,57.60
2017-05-24T19:46:49.071Z,57.60
2017-05-24T19:49:16.072Z,57.70
2017-05-24T19:51:43.038Z,58.00
2017-05-24T19:54:09.994Z,58.10
2017-05-24T19:56:36.920Z,59.40
2017-05-24T19:59:03.912Z,60.00
2017-05-24T20:01:30.832Z,59.70
2017-05-24T20:03:57.775Z,59.30
2017-05-24T20:06:24.728Z,59.30
2017-05-24T20:08:51.657Z,59.40
2017-05-24T20:11:18.590Z,59.40
2017-05-24T20:13:45.585Z,60.00
2017-05-24T20:16:12.542Z,60.40
2017-05-24T20:18:39.512Z,61.40
2017-05-24T20:21:06.501Z,61.30
2017-05-24T20:23:33.419Z,61.30
2017-05-24T20:26:00.357Z,61.40
2017-05-24T20:28:27.327Z,61.60
2017-05-24T20:30:54.280Z,61.40
2017-05-24T20:33:21.237Z,61.80
2017-05-24T20:35:48.164Z,61.40
2017-05-24T20:38:15.129Z,61.80
2017-05-24T20:40:42.061Z,61.70
2017-05-24T20:43:08.973Z,60.70
2017-05-24T20:45:35.916Z,61.80
2017-05-24T20:48:02.890Z,60.90
2017-05-24T20:50:29.840Z,60.40
2017-05-24T20:52:56.769Z,60.40
2017-05-24T20:55:23.696Z,60.40
2017-05-24T20:57:50.713Z,60.00
2017-05-24T21:00:17.756Z,59.90
2017-05-24T21:02:44.652Z,60.10
2017-05-24T21:05:11.581Z,60.00
2017-05-24T21:07:38.521Z,60.10
2017-05-24T21:10:05.449Z,61.90
2017-05-24T21:12:32.454Z,63.10
2017-05-24T21:14:59.374Z,62.90
2017-05-24T21:17:26.297Z,63.50
2017-05-24T21:19:53.276Z,64.10
2017-05-24T21:22:20.311Z,64.90
2017-05-24T21:24:47.243Z,65.30
2017-05-24T21:27:13.452Z,65.30
2017-05-24T21:29:40.355Z,65.80
2017-05-24T21:32:07.260Z,65.70
2017-05-24T21:34:34.206Z,65.60
2017-05-24T21:37:01.157Z,65.90
2017-05-24T21:39:28.368Z,65.90
2017-05-24T21:41:55.311Z,66.00
2017-05-24T21:44:22.247Z,66.00
2017-05-24T21:46:49.217Z,65.70
2017-05-24T21:49:16.154Z,65.90
2017-05-24T21:51:43.088Z,66.30
2017-05-24T21:54:10.069Z,65.70
2017-05-24T21:56:36.999Z,65.40
2017-05-24T21:59:03.921Z,65.90
2017-05-24T22:01:30.910Z,66.20
2017-05-24T22:03:57.843Z,66.70
2017-05-24T22:06:24.760Z,67.10
2017-05-24T22:08:51.701Z,67.60
2017-05-24T22:11:18.635Z,67.80
2017-05-24T22:13:45.553Z,68.50
2017-05-24T22:16:12.488Z,67.90
2017-05-24T22:18:39.432Z,68.60
2017-05-24T22:21:06.465Z,69.00
2017-05-24T22:23:33.408Z,68.90
2017-05-24T22:26:00.354Z,69.40
2017-05-24T22:28:27.312Z,69.20
2017-05-24T22:30:54.239Z,69.40
2017-05-24T22:33:21.164Z,69.80
2017-05-24T22:35:48.138Z,69.70
2017-05-24T22:38:15.053Z,70.20
2017-05-24T22:40:41.968Z,71.00
2017-05-24T22:43:08.936Z,71.40
2017-05-24T22:45:35.920Z,71.70
2017-05-24T22:48:02.838Z,72.20
2017-05-24T22:50:29.787Z,72.70
2017-05-24T22:52:56.719Z,73.00
2017-05-24T22:55:23.652Z,73.30
2017-05-24T22:57:50.681Z,72.80
2017-05-24T23:00:17.647Z,73.70
2017-05-24T23:02:44.616Z,74.70
2017-05-24T23:05:11.540Z,75.30
2017-05-24T23:07:38.448Z,75.50
2017-05-24T23:10:05.380Z,74.90
2017-05-24T23:12:32.320Z,74.20
2017-05-24T23:14:59.272Z,73.70
2017-05-24T23:17:26.237Z,73.60
2017-05-24T23:19:53.155Z,73.60
2017-05-24T23:22:20.196Z,73.70
2017-05-24T23:24:47.120Z,73.90
2017-05-24T23:27:14.041Z,73.60
2017-05-24T23:29:41.044Z,73.50
2017-05-24T23:32:07.966Z,74.50
2017-05-24T23:34:34.876Z,74.50
2017-05-24T23:37:01.819Z,74.70
2017-05-24T23:39:28.744Z,75.50
2017-05-24T23:41:55.687Z,75.50
2017-05-24T23:44:22.637Z,75.00
2017-05-24T23:46:49.581Z,74.80
2017-05-24T23:49:16.527Z,75.00
2017-05-24T23:51:43.498Z,74.60
2017-05-24T23:54:10.424Z,74.40
2017-05-24T23:56:37.328Z,74.90
2017-05-24T23:59:04.280Z,75.00
